الصفحة الرئيسية
METAR-TAF:

METAR-TAF

مطار :

يزد, إيران

دائرة عرض: 31-54N, خط طول: 054-24E, ارتفاع: 1238 متر

مراقبة الطقس الحالي

تاريخ ووقت الإصدار 43 دقيقة قبل الساعة 09:00UTC
ريح 4 عقدة من الشمال الغربي
درجة الحرارة 35°درجة مئوية
الرطوبة 18%
ضغط 1010 hPa
الرؤية: 3000 متر
غبار,

METAR: OIYY 140900Z 31004KT 3000 DU NSC 35/07 Q1010 NOSIG

زمن: 14:13 (09:43 UTC)

توقعات

تاريخ ووقت الإصدار 1ساعة و 43 دقيقة قبل الساعة 08:00UTC
التوقعات صالحة من14 الساعة 09 UTC إلى 14 الساعة 18 UTC
ريح 10 عقدة من الغرب/الشمال الغربي
الرؤية: 5000 متر
غيوم متفرقة على ارتفاع 4500 قدم
غبار
مؤقت
من 14 الساعة 09 UTC إلى 14 الساعة 15 UTC
ريح 12 عقدة من الجنوب تتزايد حتى 22 عقدة
الرؤية: 3000 متر
غيوم متفرقة على ارتفاع 3500 قدم, مزنة ركامية.
غيوم متفرقة على ارتفاع 4000 قدم
عاصفة رعدية,

TAF: OIYY 140800Z 1409/1418 30010KT 5000 DU SCT045 TEMPO 1409/1415 17012G22KT 3000 TS SA/DU SCT035CB SCT040

أرصاد الطقس والتوقعات من أكثر من 4000 مطار (تقارير الطقس للمطار METAR والتنبؤ بالطقس بالمطارTAF).

المحطات المتاحة هي النقط الصفراء والحمراء على الخريطة.

حرك المؤشر فوق النقطة لمعرفة اسم المحطة.

ثم انقر لمعرفة أرصاد وتوقعات الطقس.

لتغيير الخارطة: اضغط على الأزرار الخضراء مع رمز الصليب الأسود للتكبير. على الزر الأخضر مع شرطة للتصغير، أو على الأسهم الخضراء للخرائط المجاورة.


METAR-TAF: